Time;durP1;ratioP1;P1;durP2;ratioP2;P2;SDS_P1;SDS_P2;PMS_P1;PMS_P2;Temp;Humidity;BMP_temperature;BMP_pressure;BME280_temperature;BME280_humidity;BME280_pressure;Samples;Min_cycle;Max_cycle;Signal;HPM_P1;HPM_P2
2022/05/09 00:01:55;;;;;;;69.68;24.60;;;;;;;12.47;50.37;95386.06;5059298;28;20039;-75
2022/05/09 00:04:21;;;;;;;83.70;30.45;;;;;;;12.40;51.00;95394.03;5066993;28;20046;-75
2022/05/09 00:06:47;;;;;;;77.57;25.20;;;;;;;12.38;49.73;95392.69;5041462;28;20056;-75
2022/05/09 00:09:12;;;;;;;77.95;26.85;;;;;;;12.34;49.08;95389.72;5059807;28;20037;-75
2022/05/09 00:11:38;;;;;;;91.78;34.38;;;;;;;12.29;49.80;95393.00;5041273;28;20038;-75
2022/05/09 00:14:03;;;;;;;145.27;54.42;;;;;;;12.29;50.69;95402.66;5042372;28;20116;-78
2022/05/09 00:16:33;;;;;;;197.98;75.80;;;;;;;12.23;51.21;95398.34;5049310;28;20028;-75
2022/05/09 00:19:17;;;;;;;224.10;91.97;;;;;;;12.17;51.27;95401.84;5071731;28;20032;-76
2022/05/09 00:21:43;;;;;;;148.85;67.97;;;;;;;12.11;51.13;95397.56;5069362;28;20090;-75
2022/05/09 00:24:12;;;;;;;107.35;44.67;;;;;;;12.02;50.93;95397.88;5063489;28;20061;-76
2022/05/09 00:26:38;;;;;;;108.45;43.35;;;;;;;11.89;51.58;95403.31;5043862;28;20496;-75
2022/05/09 00:29:04;;;;;;;113.75;40.35;;;;;;;11.89;51.28;95405.94;5051023;28;20090;-75
2022/05/09 00:31:30;;;;;;;95.05;39.72;;;;;;;11.88;51.50;95412.16;5058464;28;20230;-76
2022/05/09 00:33:56;;;;;;;226.65;89.03;;;;;;;11.83;52.59;95400.81;5059199;28;20041;-75
2022/05/09 00:36:22;;;;;;;96.97;38.13;;;;;;;11.76;52.16;95403.50;5042513;28;20070;-75
2022/05/09 00:38:49;;;;;;;25.08;9.82;;;;;;;11.73;51.16;95403.94;5059511;28;20036;-75
2022/05/09 00:43:59;;;;;;;62.58;20.17;;;;;;;11.65;51.05;95412.06;5059851;28;20067;-74
2022/05/09 00:46:24;;;;;;;33.58;13.77;;;;;;;11.65;51.04;95415.47;5059328;28;20028;-75
2022/05/09 00:48:50;;;;;;;33.60;13.65;;;;;;;11.60;51.03;95415.34;5059223;28;20071;-75
2022/05/09 00:51:26;;;;;;;14.85;7.22;;;;;;;11.60;50.42;95410.16;5059041;28;20048;-75
2022/05/09 00:53:51;;;;;;;23.20;9.38;;;;;;;11.64;50.19;95413.09;5049989;28;20029;-75
2022/05/09 00:56:27;;;;;;;26.70;10.25;;;;;;;11.61;50.07;95411.75;5050312;28;20392;-75
2022/05/09 00:58:58;;;;;;;71.75;28.27;;;;;;;11.60;50.58;95415.34;5042393;28;20112;-75
2022/05/09 01:01:23;;;;;;;58.22;20.33;;;;;;;11.58;50.66;95419.22;5058905;28;20054;-76
2022/05/09 01:03:50;;;;;;;75.63;26.70;;;;;;;11.47;50.83;95418.16;5041480;28;20404;-75
2022/05/09 01:06:15;;;;;;;64.03;21.77;;;;;;;11.48;51.11;95416.34;5041437;28;20043;-75
2022/05/09 01:08:41;;;;;;;135.93;52.97;;;;;;;11.45;51.72;95420.19;5049271;28;20116;-75
2022/05/09 01:11:10;;;;;;;146.13;56.05;;;;;;;11.39;52.13;95414.06;5059155;28;20044;-75
2022/05/09 01:13:40;;;;;;;128.57;49.13;;;;;;;11.35;52.23;95415.50;5041862;28;20021;-75
2022/05/09 01:16:06;;;;;;;137.05;52.67;;;;;;;11.35;52.75;95422.50;5058732;28;20044;-75
2022/05/09 01:18:32;;;;;;;115.03;41.10;;;;;;;11.31;53.03;95419.56;5057161;28;20037;-77
2022/05/09 01:20:57;;;;;;;118.82;49.40;;;;;;;11.31;52.78;95416.97;5049406;28;20487;-77
2022/05/09 01:23:22;;;;;;;114.65;42.35;;;;;;;11.24;53.30;95424.09;5059574;28;20609;-77
2022/05/09 01:25:48;;;;;;;146.10;51.92;;;;;;;11.17;54.22;95415.53;5044983;28;20017;-75
2022/05/09 01:28:14;;;;;;;220.25;92.13;;;;;;;11.15;53.79;95422.78;5044268;28;20044;-77
2022/05/09 01:30:57;;;;;;;202.65;85.53;;;;;;;11.12;54.82;95420.63;5044765;28;20066;-75
2022/05/09 01:33:30;;;;;;;212.98;87.68;;;;;;;11.08;54.32;95427.28;5061138;28;20550;-76
2022/05/09 01:35:57;;;;;;;196.15;82.90;;;;;;;11.06;54.87;95430.13;5061838;28;20086;-77
2022/05/09 01:38:49;;;;;;;139.27;53.45;;;;;;;10.97;54.83;95417.63;5061421;28;20106;-76
2022/05/09 01:41:14;;;;;;;144.25;62.70;;;;;;;10.94;55.03;95425.88;5059716;28;20123;-76
2022/05/09 01:43:42;;;;;;;124.78;46.28;;;;;;;10.87;55.17;95425.91;5061205;28;20026;-76
2022/05/09 01:46:16;;;;;;;111.15;42.05;;;;;;;10.82;55.14;95421.38;5027457;28;20495;-76
2022/05/09 01:51:25;;;;;;;159.75;63.00;;;;;;;10.72;56.05;95423.69;5064459;28;20040;-76
2022/05/09 01:53:54;;;;;;;119.18;45.15;;;;;;;10.68;56.11;95417.34;5060624;28;20416;-76
2022/05/09 01:56:38;;;;;;;116.78;41.25;;;;;;;10.67;55.91;95420.94;5050949;28;20068;-76
2022/05/09 01:59:06;;;;;;;85.68;31.45;;;;;;;10.63;56.63;95419.81;5061127;28;20033;-76
2022/05/09 02:01:38;;;;;;;50.80;20.13;;;;;;;10.61;56.71;95421.03;5062334;28;20035;-76
2022/05/09 02:04:04;;;;;;;102.57;37.13;;;;;;;10.59;57.14;95421.25;5060781;28;20054;-76
2022/05/09 02:06:29;;;;;;;114.95;43.70;;;;;;;10.51;57.10;95421.53;5061861;28;20037;-76
2022/05/09 02:08:55;;;;;;;116.82;42.70;;;;;;;10.49;56.85;95423.53;5060505;28;20041;-75
2022/05/09 02:11:20;;;;;;;97.70;39.22;;;;;;;10.41;56.91;95419.44;5061699;28;20028;-76
2022/05/09 02:13:45;;;;;;;165.63;61.05;;;;;;;10.38;57.11;95425.03;5061602;28;20036;-76
2022/05/09 02:16:11;;;;;;;119.95;41.20;;;;;;;10.31;57.63;95420.94;5060903;28;20029;-76
2022/05/09 02:18:36;;;;;;;109.03;39.30;;;;;;;10.30;57.47;95427.16;5043016;28;20492;-77
2022/05/09 02:21:02;;;;;;;193.57;64.13;;;;;;;10.23;57.84;95424.59;5060601;28;20115;-76
2022/05/09 02:23:28;;;;;;;109.45;35.72;;;;;;;10.20;57.01;95432.78;5044265;28;20495;-77
2022/05/09 02:25:53;;;;;;;132.35;46.50;;;;;;;10.19;57.82;95429.41;5069063;28;20405;-76
2022/05/09 02:28:21;;;;;;;145.90;53.00;;;;;;;10.20;58.13;95430.19;5065501;28;20439;-77
2022/05/09 02:30:47;;;;;;;210.32;73.50;;;;;;;10.15;58.51;95430.84;5061763;28;20071;-75
2022/05/09 02:33:12;;;;;;;228.23;71.10;;;;;;;10.12;57.80;95428.66;5060137;28;20043;-75
2022/05/09 02:35:38;;;;;;;202.35;78.88;;;;;;;10.10;58.34;95432.50;5059745;28;20028;-75
2022/05/09 02:38:03;;;;;;;213.13;81.88;;;;;;;10.06;58.45;95426.13;5043387;28;20032;-76
2022/05/09 02:40:29;;;;;;;236.23;86.97;;;;;;;10.04;59.04;95436.72;5050833;28;20052;-76
2022/05/09 02:42:56;;;;;;;213.82;83.18;;;;;;;10.01;58.57;95438.94;5061191;28;20036;-75
2022/05/09 02:45:21;;;;;;;224.65;82.28;;;;;;;9.99;58.73;95433.97;5061378;28;20021;-75
2022/05/09 02:47:47;;;;;;;199.95;75.07;;;;;;;9.98;58.67;95436.78;5061196;28;20480;-75
2022/05/09 02:50:12;;;;;;;185.35;60.35;;;;;;;9.96;59.04;95439.59;5064991;28;20039;-74
2022/05/09 02:52:38;;;;;;;187.32;68.03;;;;;;;9.90;58.77;95435.22;5072062;28;20419;-75
2022/05/09 02:55:05;;;;;;;281.15;99.15;;;;;;;9.85;58.85;95443.66;5036682;28;20036;-75
2022/05/09 02:57:30;;;;;;;271.55;110.18;;;;;;;9.74;59.38;95446.13;5061349;28;20121;-74
2022/05/09 02:59:55;;;;;;;307.65;112.88;;;;;;;9.69;59.60;95451.19;5061374;28;20033;-75
2022/05/09 03:02:21;;;;;;;149.20;56.63;;;;;;;9.67;58.90;95455.78;5060921;28;20041;-74
2022/05/09 03:04:47;;;;;;;164.95;60.83;;;;;;;9.61;59.48;95453.03;5060443;28;20523;-75
2022/05/09 03:07:13;;;;;;;158.88;59.38;;;;;;;9.58;59.69;95453.44;5059573;28;20036;-74
2022/05/09 03:09:41;;;;;;;147.55;54.90;;;;;;;9.59;59.60;95454.22;5059015;28;20068;-74
2022/05/09 03:12:07;;;;;;;136.82;47.88;;;;;;;9.61;59.68;95455.63;5051907;28;20032;-75
2022/05/09 03:14:33;;;;;;;186.18;63.88;;;;;;;9.62;59.03;95454.63;5062142;28;20381;-76
2022/05/09 03:16:59;;;;;;;249.68;95.25;;;;;;;9.58;59.88;95466.41;5059097;28;20099;-76
2022/05/09 03:19:25;;;;;;;249.25;91.90;;;;;;;9.63;59.17;95453.63;5059221;28;20059;-76
2022/05/09 03:21:51;;;;;;;248.98;90.78;;;;;;;9.62;59.58;95465.00;5059780;28;20044;-75
2022/05/09 03:24:16;;;;;;;209.18;80.88;;;;;;;9.65;59.46;95466.38;5050958;28;20064;-76
2022/05/09 03:26:42;;;;;;;176.85;68.97;;;;;;;9.69;58.72;95466.75;5059250;28;20488;-76
2022/05/09 03:29:07;;;;;;;159.98;59.70;;;;;;;9.72;58.79;95474.91;5051709;28;20506;-76
2022/05/09 03:31:33;;;;;;;132.00;51.88;;;;;;;9.75;59.33;95473.69;5059271;28;20495;-76
2022/05/09 03:33:59;;;;;;;123.95;39.00;;;;;;;9.79;58.90;95475.69;5025875;28;20041;-76
2022/05/09 03:36:24;;;;;;;89.05;34.63;;;;;;;9.82;58.89;95475.25;5042740;28;20031;-76
2022/05/09 03:38:50;;;;;;;87.68;30.83;;;;;;;9.89;58.97;95475.22;5059025;28;20041;-75
2022/05/09 03:41:15;;;;;;;112.78;40.05;;;;;;;9.92;59.05;95477.38;5060193;28;20020;-74
2022/05/09 03:43:40;;;;;;;103.93;38.45;;;;;;;10.02;58.62;95474.31;5059197;28;20043;-75
2022/05/09 03:46:06;;;;;;;78.38;27.70;;;;;;;10.07;58.29;95477.06;5059559;28;20029;-74
2022/05/09 03:48:31;;;;;;;85.55;28.90;;;;;;;10.13;58.88;95477.03;5058733;28;20038;-74
2022/05/09 03:50:57;;;;;;;150.25;64.45;;;;;;;10.26;57.77;95467.56;5060178;28;20043;-75
2022/05/09 03:53:26;;;;;;;117.53;44.03;;;;;;;10.33;57.89;95476.09;5058525;28;20032;-75
2022/05/09 03:55:52;;;;;;;136.57;51.13;;;;;;;10.44;56.73;95483.22;5060706;28;20033;-75
2022/05/09 03:58:18;;;;;;;150.40;52.42;;;;;;;10.56;56.73;95476.28;5067982;28;20032;-76
2022/05/09 04:00:43;;;;;;;144.48;56.58;;;;;;;10.69;56.68;95481.34;5060331;28;20116;-75
2022/05/09 04:03:09;;;;;;;117.38;46.45;;;;;;;10.90;55.92;95487.13;5042516;28;20116;-78
2022/05/09 04:05:35;;;;;;;157.27;54.13;;;;;;;12.09;53.20;95480.41;5033660;28;20531;-74
2022/05/09 04:08:03;;;;;;;234.60;94.00;;;;;;;14.11;48.18;95472.47;5059063;28;20064;-74
2022/05/09 04:10:30;;;;;;;234.18;90.15;;;;;;;15.78;43.44;95478.34;5060370;28;20029;-74
2022/05/09 04:12:56;;;;;;;233.45;90.15;;;;;;;16.92;40.82;95470.06;5042902;28;20021;-74
2022/05/09 04:18:06;;;;;;;271.02;106.85;;;;;;;19.24;36.67;95468.94;5060200;28;20055;-74
2022/05/09 04:20:31;;;;;;;327.50;139.77;;;;;;;21.08;33.16;95461.28;5059926;28;20373;-74
2022/05/09 04:22:57;;;;;;;287.60;118.45;;;;;;;22.64;29.64;95462.81;5058047;28;20040;-74
2022/05/09 04:25:23;;;;;;;161.70;74.88;;;;;;;24.19;27.61;95470.84;5058233;28;20033;-73
2022/05/09 04:27:49;;;;;;;65.40;25.23;;;;;;;25.61;24.75;95469.84;5059541;28;20028;-74
2022/05/09 04:30:15;;;;;;;24.70;9.18;;;;;;;26.63;23.21;95469.41;5059938;28;20123;-75
2022/05/09 04:32:40;;;;;;;17.27;5.82;;;;;;;27.44;22.12;95460.47;5059398;28;20036;-73
2022/05/09 04:35:13;;;;;;;33.85;7.10;;;;;;;28.31;20.98;95474.88;5059047;28;20400;-74
2022/05/09 04:37:42;;;;;;;24.00;7.07;;;;;;;29.31;19.86;95470.19;5059448;28;20111;-73
2022/05/09 04:40:08;;;;;;;12.75;5.30;;;;;;;30.20;18.68;95472.09;5058713;28;20036;-73
2022/05/09 04:42:33;;;;;;;11.05;4.40;;;;;;;30.98;17.82;95469.59;5059552;28;20430;-73
2022/05/09 04:44:59;;;;;;;14.85;4.32;;;;;;;31.54;17.50;95469.41;5058203;28;20037;-73
2022/05/09 04:47:24;;;;;;;14.70;4.88;;;;;;;31.74;16.66;95474.91;5059909;28;20040;-74
2022/05/09 04:49:49;;;;;;;22.45;4.10;;;;;;;32.54;16.45;95471.53;5041012;28;20059;-73
2022/05/09 04:52:15;;;;;;;16.08;5.22;;;;;;;33.84;15.66;95468.69;5058961;28;20021;-77
2022/05/09 04:54:40;;;;;;;13.52;4.85;;;;;;;34.66;14.74;95463.53;5067997;28;20025;-75
2022/05/09 04:57:06;;;;;;;11.60;4.40;;;;;;;35.33;14.42;95468.81;5060493;28;20041;-75
2022/05/09 04:59:31;;;;;;;11.10;4.20;;;;;;;35.73;13.51;95468.72;5059686;28;20365;-75
2022/05/09 05:01:57;;;;;;;9.73;4.00;;;;;;;35.84;13.16;95479.66;5040553;28;20032;-75
2022/05/09 05:04:22;;;;;;;8.88;4.10;;;;;;;36.12;13.25;95473.56;5059104;28;20029;-75
2022/05/09 05:06:48;;;;;;;8.82;4.40;;;;;;;36.43;12.67;95476.81;5061227;28;20033;-75
2022/05/09 05:09:13;;;;;;;9.27;4.82;;;;;;;37.29;12.83;95475.09;5048247;28;20086;-76
2022/05/09 05:11:38;;;;;;;9.75;5.20;;;;;;;37.91;11.63;95463.78;5058135;28;20487;-76
2022/05/09 05:14:04;;;;;;;13.60;4.30;;;;;;;38.76;11.36;95470.84;5059158;28;20032;-76
2022/05/09 05:19:13;;;;;;;18.70;5.00;;;;;;;39.08;10.86;95471.44;5059330;28;20056;-76
2022/05/09 05:21:41;;;;;;;19.17;4.65;;;;;;;39.85;10.63;95471.13;5068079;28;20029;-76
2022/05/09 05:24:07;;;;;;;9.77;4.55;;;;;;;40.53;10.47;95464.97;5059230;28;20108;-77
2022/05/09 05:26:32;;;;;;;14.02;5.05;;;;;;;41.29;9.96;95471.66;5059349;28;20032;-77
2022/05/09 05:28:58;;;;;;;20.80;4.60;;;;;;;41.55;9.29;95470.06;5058370;28;20048;-77
2022/05/09 05:31:30;;;;;;;17.52;4.57;;;;;;;42.19;9.23;95472.41;5058479;28;20028;-77
2022/05/09 05:33:56;;;;;;;15.07;4.90;;;;;;;42.76;9.07;95465.75;5058157;28;20033;-77
2022/05/09 05:36:21;;;;;;;13.90;4.45;;;;;;;43.40;8.50;95469.75;5058435;28;20051;-77
2022/05/09 05:38:51;;;;;;;16.70;4.65;;;;;;;43.81;8.43;95464.84;5057630;28;20024;-77
2022/05/09 05:41:18;;;;;;;15.27;4.65;;;;;;;44.29;8.01;95477.66;5058743;28;20420;-77
2022/05/09 05:43:43;;;;;;;11.13;4.47;;;;;;;44.91;7.37;95472.69;5041490;28;20437;-77
2022/05/09 05:46:09;;;;;;;11.80;4.13;;;;;;;45.28;7.72;95467.66;5056827;28;20020;-76
2022/05/09 05:48:35;;;;;;;15.70;5.03;;;;;;;45.49;7.18;95475.16;5057365;28;20036;-77
2022/05/09 05:51:00;;;;;;;21.13;5.57;;;;;;;45.70;7.05;95466.22;5058077;28;20036;-77
2022/05/09 05:53:26;;;;;;;10.32;4.45;;;;;;;45.95;6.99;95475.59;5059452;28;20497;-76
2022/05/09 05:55:51;;;;;;;17.42;5.03;;;;;;;44.89;7.15;95472.38;5058273;28;20029;-76
2022/05/09 05:58:17;;;;;;;17.20;4.93;;;;;;;44.70;7.83;95470.59;5058551;28;20037;-76
2022/05/09 06:00:43;;;;;;;13.05;5.95;;;;;;;44.39;7.48;95462.06;5024458;28;20064;-76
2022/05/09 06:03:08;;;;;;;17.77;5.80;;;;;;;44.88;7.51;95462.59;5057937;28;20029;-76
2022/05/09 06:05:34;;;;;;;10.38;4.90;;;;;;;45.28;7.41;95468.41;5058839;28;20033;-76
2022/05/09 06:07:59;;;;;;;13.73;6.18;;;;;;;45.29;6.93;95469.19;5058078;28;20444;-75
2022/05/09 06:10:30;;;;;;;22.73;5.63;;;;;;;45.17;7.42;95468.72;5061412;28;20488;-77
2022/05/09 06:12:55;;;;;;;10.15;5.47;;;;;;;45.45;7.34;95472.56;5043491;28;20029;-76
2022/05/09 06:15:32;;;;;;;21.20;6.15;;;;;;;45.26;7.50;95464.59;5060444;28;20041;-76
2022/05/09 06:17:59;;;;;;;13.48;5.78;;;;;;;43.63;8.04;95470.78;5045014;28;20610;-76
2022/05/09 06:20:24;;;;;;;25.48;6.32;;;;;;;43.13;8.39;95466.50;5060429;28;20528;-76
2022/05/09 06:22:50;;;;;;;16.95;6.43;;;;;;;42.26;8.81;95469.53;5062429;28;20516;-76
2022/05/09 06:25:17;;;;;;;24.83;6.50;;;;;;;41.91;9.20;95475.66;5053162;28;20029;-76
2022/05/09 06:27:42;;;;;;;21.27;7.68;;;;;;;41.40;9.37;95469.53;5054026;28;20487;-76
2022/05/09 06:30:11;;;;;;;26.95;7.25;;;;;;;41.34;10.07;95468.47;5042854;28;20044;-76
2022/05/09 06:32:36;;;;;;;21.38;7.78;;;;;;;40.41;10.08;95471.72;5068670;28;20476;-77
2022/05/09 06:35:06;;;;;;;16.75;5.60;;;;;;;39.52;10.12;95465.25;5044322;28;20060;-76
2022/05/09 06:37:33;;;;;;;22.25;7.05;;;;;;;38.46;11.27;95468.66;5058527;28;20500;-76
2022/05/09 06:39:59;;;;;;;35.80;8.00;;;;;;;37.67;12.03;95471.56;5059919;28;20040;-77
2022/05/09 06:42:25;;;;;;;17.17;6.50;;;;;;;37.12;11.95;95469.25;5061578;28;20512;-77
2022/05/09 06:44:50;;;;;;;9.32;6.20;;;;;;;36.48;12.65;95462.94;5060630;28;20040;-76
2022/05/09 06:47:16;;;;;;;19.75;7.32;;;;;;;36.14;13.00;95465.88;5060286;28;20416;-76
2022/05/09 06:49:41;;;;;;;15.65;6.43;;;;;;;35.78;13.63;95460.22;5062030;28;20033;-76
2022/05/09 06:52:07;;;;;;;31.92;6.78;;;;;;;35.47;13.56;95468.91;5060423;28;20024;-75
2022/05/09 06:54:32;;;;;;;18.33;6.80;;;;;;;35.11;14.16;95459.72;5061064;28;20033;-75
2022/05/09 06:56:58;;;;;;;21.95;7.45;;;;;;;34.71;14.52;95464.00;5060818;28;20040;-76
2022/05/09 06:59:23;;;;;;;31.48;7.05;;;;;;;34.07;15.02;95462.47;5044127;28;20131;-76
2022/05/09 07:01:50;;;;;;;16.60;6.18;;;;;;;33.58;15.27;95461.41;5043548;28;20032;-76
2022/05/09 07:04:16;;;;;;;18.98;6.80;;;;;;;33.13;15.67;95462.22;5050472;28;20035;-76
2022/05/09 07:06:42;;;;;;;16.30;6.95;;;;;;;32.67;15.68;95462.16;5060117;28;20036;-76
2022/05/09 07:09:11;;;;;;;17.42;7.00;;;;;;;32.22;17.15;95460.91;5060099;28;20060;-76
2022/05/09 07:11:37;;;;;;;32.38;6.90;;;;;;;31.92;16.74;95451.84;5059136;28;20025;-76
2022/05/09 07:14:03;;;;;;;21.55;6.75;;;;;;;31.47;17.27;95453.13;5043506;28;20035;-76
2022/05/09 07:16:28;;;;;;;23.02;7.47;;;;;;;31.05;17.85;95448.28;5058770;28;20095;-76
2022/05/09 07:18:54;;;;;;;16.63;7.15;;;;;;;30.86;18.19;95460.84;5061716;28;20147;-77
2022/05/09 07:21:19;;;;;;;17.17;6.55;;;;;;;30.62;17.76;95461.78;5059754;28;20430;-76
2022/05/09 07:23:45;;;;;;;16.08;5.93;;;;;;;30.20;18.33;95454.09;5060620;28;20565;-76
2022/05/09 07:26:10;;;;;;;17.52;6.40;;;;;;;30.08;18.75;95459.50;5062505;28;20037;-75
2022/05/09 07:28:35;;;;;;;14.10;6.10;;;;;;;29.86;18.33;95458.09;5066241;28;20025;-75
2022/05/09 07:31:01;;;;;;;11.55;4.63;;;;;;;29.68;18.22;95448.75;5060188;28;20071;-76
2022/05/09 07:33:28;;;;;;;22.20;5.53;;;;;;;29.55;18.54;95447.97;5059989;28;20494;-76
2022/05/09 07:35:53;;;;;;;17.92;5.25;;;;;;;29.35;18.48;95460.34;5050854;28;20044;-75
2022/05/09 07:38:19;;;;;;;17.00;6.43;;;;;;;29.28;18.95;95458.22;5041643;28;21021;-76
2022/05/09 07:40:45;;;;;;;17.67;5.50;;;;;;;29.24;19.50;95465.38;5059120;28;20495;-75
2022/05/09 07:43:14;;;;;;;14.75;5.43;;;;;;;29.02;19.79;95457.78;5042844;28;20029;-75
2022/05/09 07:45:40;;;;;;;17.83;5.70;;;;;;;28.92;19.29;95458.97;5059063;28;20067;-75
2022/05/09 07:48:06;;;;;;;6.32;4.57;;;;;;;28.42;19.49;95463.75;5042258;28;20141;-76
2022/05/09 07:50:32;;;;;;;15.88;5.25;;;;;;;28.28;19.59;95466.69;5063079;28;20041;-75
2022/05/09 07:52:57;;;;;;;13.38;4.78;;;;;;;28.14;19.66;95460.81;5064604;28;20037;-76
2022/05/09 07:55:22;;;;;;;13.82;4.45;;;;;;;27.98;20.51;95464.06;5060316;28;20032;-76
2022/05/09 07:57:48;;;;;;;9.68;4.97;;;;;;;27.62;20.81;95453.94;5060473;28;20037;-76
2022/05/09 08:00:14;;;;;;;17.42;5.38;;;;;;;27.54;20.76;95454.00;5042018;28;20117;-76
2022/05/09 08:02:42;;;;;;;13.68;4.55;;;;;;;27.38;21.01;95451.09;5058640;28;20624;-76
2022/05/09 08:05:10;;;;;;;16.70;4.47;;;;;;;27.27;21.41;95456.03;5058578;28;20112;-76
2022/05/09 08:07:37;;;;;;;11.00;3.72;;;;;;;26.90;21.63;95452.22;5059593;28;20067;-76
2022/05/09 08:10:03;;;;;;;12.82;4.05;;;;;;;26.58;22.24;95456.25;5058622;28;20424;-76
2022/05/09 08:12:29;;;;;;;8.18;3.85;;;;;;;26.23;22.11;95452.81;5083554;28;20067;-75
2022/05/09 08:15:04;;;;;;;7.68;3.78;;;;;;;26.04;22.80;95453.16;5058390;28;20036;-76
2022/05/09 08:17:29;;;;;;;6.10;3.05;;;;;;;26.06;22.12;95456.28;5059460;28;20032;-75
2022/05/09 08:19:55;;;;;;;14.18;3.45;;;;;;;26.09;22.08;95458.31;5058568;28;20044;-76
2022/05/09 08:22:21;;;;;;;13.18;3.40;;;;;;;26.16;22.33;95455.94;5059656;28;20029;-76
2022/05/09 08:24:47;;;;;;;8.98;3.40;;;;;;;26.26;22.68;95458.31;5066705;28;20499;-76
2022/05/09 08:27:12;;;;;;;6.60;3.08;;;;;;;26.01;21.26;95453.75;5058877;28;20037;-77
2022/05/09 08:29:38;;;;;;;7.57;3.03;;;;;;;25.40;20.42;95447.56;5040952;28;20384;-77
2022/05/09 08:32:04;;;;;;;13.23;3.35;;;;;;;25.29;20.43;95448.94;5058332;28;20741;-76
2022/05/09 08:34:29;;;;;;;10.73;3.00;;;;;;;25.44;21.49;95456.50;5058169;28;20073;-77
2022/05/09 08:36:55;;;;;;;19.17;3.05;;;;;;;25.20;20.48;95461.44;5057847;28;20021;-76
2022/05/09 08:39:22;;;;;;;11.93;2.65;;;;;;;25.04;21.60;95453.88;5059499;28;20492;-76
2022/05/09 08:42:00;;;;;;;6.70;3.20;;;;;;;24.13;22.92;95456.13;5057999;28;20029;-76
2022/05/09 08:44:45;;;;;;;17.55;3.35;;;;;;;23.53;23.40;95456.34;5025488;28;20083;-76
2022/05/09 08:47:51;;;;;;;6.78;3.00;;;;;;;23.44;21.78;95455.50;5058273;28;20036;-76
2022/05/09 08:50:30;;;;;;;10.77;2.78;;;;;;;23.63;19.95;95458.84;5058449;28;20625;-76
2022/05/09 08:53:00;;;;;;;8.38;2.13;;;;;;;23.95;20.02;95453.34;5059299;28;20038;-75
2022/05/09 08:55:33;;;;;;;9.07;2.63;;;;;;;23.67;21.87;95454.50;5066232;28;20044;-76
2022/05/09 08:58:31;;;;;;;5.28;2.97;;;;;;;23.11;22.72;95463.56;5057894;28;20074;-75
2022/05/09 09:00:59;;;;;;;5.82;2.20;;;;;;;23.07;21.78;95457.28;5059090;28;20083;-75
2022/05/09 09:03:24;;;;;;;4.88;2.30;;;;;;;23.24;21.06;95454.03;5041588;28;20033;-76
2022/05/09 09:05:50;;;;;;;12.35;2.50;;;;;;;23.48;21.14;95446.63;5059195;28;20033;-76
2022/05/09 09:08:39;;;;;;;2.35;2.00;;;;;;;23.68;20.25;95450.75;5058112;28;20036;-76
2022/05/09 09:11:16;;;;;;;4.43;2.10;;;;;;;23.86;20.34;95451.69;5058632;28;20131;-76
2022/05/09 09:13:53;;;;;;;5.50;2.00;;;;;;;23.83;18.83;95446.97;5042256;28;20715;-76
2022/05/09 09:16:50;;;;;;;4.60;2.13;;;;;;;23.84;19.96;95444.03;5059755;28;20124;-76
2022/05/09 09:19:23;;;;;;;6.93;2.03;;;;;;;23.87;18.31;95455.91;5058247;28;20048;-75
2022/05/09 09:22:46;;;;;;;7.70;1.42;;;;;;;23.91;15.66;95439.06;5058583;28;20062;-75
2022/05/09 09:25:43;;;;;;;2.97;1.98;;;;;;;24.09;17.90;95444.53;5018759;28;20408;-75
2022/05/09 09:28:22;;;;;;;3.15;1.95;;;;;;;24.02;17.70;95441.50;4999004;28;20292;-75
2022/05/09 09:30:48;;;;;;;9.50;1.90;;;;;;;24.07;16.83;95436.06;5043306;28;20060;-75
2022/05/09 09:33:14;;;;;;;8.38;1.98;;;;;;;24.05;15.21;95441.69;5060421;28;20091;-76
2022/05/09 09:35:56;;;;;;;2.63;1.38;;;;;;;24.03;13.10;95435.09;5042461;28;20039;-75
2022/05/09 09:38:37;;;;;;;2.85;1.45;;;;;;;24.01;13.15;95424.00;5024811;28;20029;-76
2022/05/09 09:41:23;;;;;;;8.32;1.67;;;;;;;23.99;15.02;95429.59;5058824;28;20483;-76
2022/05/09 09:43:49;;;;;;;8.43;1.90;;;;;;;23.78;16.21;95444.44;5058071;28;20082;-74
2022/05/09 09:46:15;;;;;;;3.83;1.60;;;;;;;23.60;15.28;95422.28;5063052;28;20029;-74
2022/05/09 09:48:41;;;;;;;3.33;1.55;;;;;;;23.78;16.13;95423.97;5044965;28;20485;-75
2022/05/09 09:51:10;;;;;;;2.83;1.98;;;;;;;23.30;18.43;95424.44;5062635;28;20028;-75
2022/05/09 09:53:40;;;;;;;4.28;2.25;;;;;;;22.63;19.37;95418.03;5062349;28;20067;-75
2022/05/09 09:56:10;;;;;;;3.13;1.98;;;;;;;22.57;19.39;95412.03;5063155;28;20028;-75
2022/05/09 09:58:38;;;;;;;3.92;1.92;;;;;;;22.34;17.47;95428.88;5061516;28;20029;-75
2022/05/09 10:01:12;;;;;;;4.85;2.08;;;;;;;22.34;16.77;95415.63;5071013;28;20055;-76
2022/05/09 10:03:46;;;;;;;2.90;1.65;;;;;;;21.86;17.22;95413.19;5065595;28;20033;-77
2022/05/09 10:06:19;;;;;;;1.80;1.70;;;;;;;22.01;17.61;95405.00;5044561;28;20036;-75
2022/05/09 10:08:45;;;;;;;9.07;2.30;;;;;;;22.12;17.89;95406.41;5060071;28;20044;-75
2022/05/09 10:11:13;;;;;;;1.42;1.33;;;;;;;22.21;17.46;95422.44;5059430;28;20078;-75
2022/05/09 10:13:40;;;;;;;4.75;1.85;;;;;;;22.27;17.93;95409.91;5060863;28;20078;-75
2022/05/09 10:16:13;;;;;;;3.88;1.67;;;;;;;22.17;17.59;95414.31;5060320;28;20408;-74
2022/05/09 10:18:38;;;;;;;3.35;1.60;;;;;;;22.23;17.68;95407.06;5060937;28;20032;-74
2022/05/09 10:21:14;;;;;;;14.95;2.00;;;;;;;22.40;17.81;95409.94;5061154;28;20099;-74
2022/05/09 10:26:36;;;;;;;3.65;1.65;;;;;;;22.58;17.22;95402.19;5089907;28;20130;-74
2022/05/09 10:29:14;;;;;;;6.30;1.67;;;;;;;22.67;17.28;95401.25;5059448;28;20049;-76
2022/05/09 10:31:43;;;;;;;7.60;1.70;;;;;;;22.80;16.99;95415.59;5059985;28;20102;-74
2022/05/09 10:34:22;;;;;;;5.55;1.70;;;;;;;22.63;16.34;95404.78;5059928;28;20033;-76
2022/05/09 10:37:07;;;;;;;2.08;1.20;;;;;;;22.73;15.15;95399.28;5061031;28;20041;-75
2022/05/09 10:39:34;;;;;;;4.70;1.60;;;;;;;22.93;16.17;95400.78;5060956;28;20133;-76
2022/05/09 10:42:02;;;;;;;5.90;1.60;;;;;;;23.07;16.10;95404.22;5051293;28;20037;-75
2022/05/09 10:44:44;;;;;;;2.30;1.60;;;;;;;23.13;16.78;95400.41;5043434;28;20079;-76
2022/05/09 10:47:28;;;;;;;7.97;1.63;;;;;;;23.31;16.53;95388.09;5060363;28;20047;-75
2022/05/09 10:50:17;;;;;;;2.85;1.50;;;;;;;23.37;16.05;95392.19;5059504;28;20044;-76
2022/05/09 10:53:03;;;;;;;2.38;1.20;;;;;;;23.16;16.26;95402.44;5060547;28;20061;-75
2022/05/09 10:55:49;;;;;;;4.05;1.30;;;;;;;22.68;15.77;95397.50;5051212;28;20047;-76
2022/05/09 10:58:29;;;;;;;4.00;1.40;;;;;;;22.51;15.08;95384.06;5059602;28;20060;-76
2022/05/09 11:01:22;;;;;;;3.50;1.67;;;;;;;22.72;15.88;95387.88;5061458;28;20029;-75
2022/05/09 11:03:48;;;;;;;5.80;1.58;;;;;;;22.36;15.05;95389.63;5051083;28;20431;-76
2022/05/09 11:06:35;;;;;;;5.18;1.20;;;;;;;22.59;15.07;95377.28;5058723;28;20044;-76
2022/05/09 11:09:10;;;;;;;9.82;1.40;;;;;;;22.75;15.42;95378.56;5043853;28;20060;-75
2022/05/09 11:12:01;;;;;;;6.45;1.40;;;;;;;22.83;16.02;95388.50;5060500;28;20404;-75
2022/05/09 11:15:14;;;;;;;2.78;1.42;;;;;;;22.91;15.68;95379.06;5059514;28;20041;-75
2022/05/09 11:17:56;;;;;;;;;;;;;;;23.04;15.63;95373.75;5045458;28;20045;-75
2022/05/09 11:20:52;;;;;;;4.18;1.48;;;;;;;23.09;16.48;95378.16;5059333;28;19943;-76
2022/05/09 11:23:29;;;;;;;4.20;1.42;;;;;;;23.03;15.59;95372.19;5039541;28;20131;-75
2022/05/09 11:26:22;;;;;;;6.82;1.40;;;;;;;22.79;15.85;95365.50;5058865;28;20045;-75
2022/05/09 11:28:53;;;;;;;;;;;;;;;22.70;15.99;95373.34;5061009;28;20047;-76
2022/05/09 11:31:18;;;;;;;8.68;1.50;;;;;;;22.41;16.10;95370.97;5060416;28;19921;-75
2022/05/09 11:34:06;;;;;;;4.13;1.88;;;;;;;21.74;16.84;95370.47;5060242;28;20445;-75
2022/05/09 11:36:34;;;;;;;2.38;1.67;;;;;;;21.92;16.81;95374.94;5059928;28;20048;-74
2022/05/09 11:39:22;;;;;;;3.53;1.70;;;;;;;21.98;17.16;95365.84;5058939;28;20449;-74
2022/05/09 11:41:56;;;;;;;5.15;2.05;;;;;;;22.07;16.70;95366.78;5050871;28;20417;-75
2022/05/09 11:44:40;;;;;;;9.38;1.50;;;;;;;22.16;16.52;95359.75;5059669;28;20480;-76
2022/05/09 11:47:25;;;;;;;5.00;1.80;;;;;;;22.13;16.13;95344.44;5042999;28;20045;-75
2022/05/09 11:50:12;;;;;;;2.85;1.27;;;;;;;22.24;15.92;95354.84;5059199;28;20123;-75